No particular awareness of the weather is required.    There are no Weather-warnings


Meteo18 Weather Cam more information Meteo18 Weather Cam


Thunder radar more information blitzortung!


Rain radar more information rain snow radar


Visit our other weather sites:

Template documentation
and downloads

And another site



Weather Underground History page Text

Daily Summary for June 11, 2017 Units:  Both    English   Metric
« Previous Day
Next Day »
Daily Weekly Monthly Yearly Custom
  High: Low: Average:
Temperature: TemperatureC °F /  -17.8 °C 14.1 °F /  -9.9 °C 23.2 °F /  -4.9 °C
Dew Point: DewpointC °F /  -17.8 °C 12.1 °F /  -11.1 °C 14.7 °F /  -9.6 °C
Humidity: Humidity % 35 % 62 %
Wind Speed: WindSpeedKMH mph /  0 km/h - 2.5 mph /  4 km/h
Wind Gust: WindSpeedGustKMH mph /  0 km/h - -
Wind:- - SW
Pressure: PressurehPa in /  0 hPa 1016.1 in /  34405.1 hPa -
Precipitation: 0.0 in /  0 mm    
Historical Graphs
 
 
Tabular Data for June 11, 2017
Time Temperature Dew Point Pressure Wind Wind Speed Wind Gust Humidity Rainfall Rate (Hourly)
TemperatureC °F /  -17.8 °C DewpointC °F /  -17.8 °C PressurehPa in /  0 hPa Calm     Humidity % HourlyPrecipMM in /  0 mm
00:02 17.9 °F /  -7.8 °C 13.4 °F /  -10.3 °C 1020.5 in /  34554.1 hPa Calm     75 % 0.0 in /  0 mm
00:07 17.7 °F /  -7.9 °C 13.4 °F /  -10.3 °C 1020.5 in /  34554.1 hPa Calm     76 % 0.0 in /  0 mm
00:12 17.6 °F /  -8 °C 13.3 °F /  -10.4 °C 1020.5 in /  34554.1 hPa Calm     76 % 0.0 in /  0 mm
00:17 17.5 °F /  -8.1 °C 13.2 °F /  -10.4 °C 1020.5 in /  34554.1 hPa Calm     76 % 0.0 in /  0 mm
00:22 17.4 °F /  -8.1 °C 13.1 °F /  -10.5 °C 1020.2 in /  34544 hPa Calm     76 % 0.0 in /  0 mm
00:27 17.4 °F /  -8.1 °C 13.1 °F /  -10.5 °C 1020.2 in /  34544 hPa Calm     76 % 0.0 in /  0 mm
00:32 17.3 °F /  -8.2 °C 13.0 °F /  -10.6 °C 1020.2 in /  34544 hPa Calm     76 % 0.0 in /  0 mm
00:42 17.1 °F /  -8.3 °C 13.0 °F /  -10.6 °C 1020.2 in /  34544 hPa Calm     77 % 0.0 in /  0 mm
00:47 17.1 °F /  -8.3 °C 13.2 °F /  -10.4 °C 1020.2 in /  34544 hPa Calm     78 % 0.0 in /  0 mm
00:52 16.9 °F /  -8.4 °C 13.0 °F /  -10.6 °C 1019.9 in /  34533.8 hPa Calm     78 % 0.0 in /  0 mm
00:57 16.9 °F /  -8.4 °C 13.0 °F /  -10.6 °C 1019.9 in /  34533.8 hPa Calm     78 % 0.0 in /  0 mm
01:02 16.9 °F /  -8.4 °C 13.0 °F /  -10.6 °C 1019.9 in /  34533.8 hPa Calm     78 % 0.0 in /  0 mm
01:07 16.8 °F /  -8.4 °C 13.1 °F /  -10.5 °C 1019.9 in /  34533.8 hPa Calm     79 % 0.0 in /  0 mm
01:12 16.6 °F /  -8.6 °C 13.1 °F /  -10.5 °C 1019.9 in /  34533.8 hPa Calm     80 % 0.0 in /  0 mm
01:17 16.4 °F /  -8.7 °C 12.9 °F /  -10.6 °C 1019.9 in /  34533.8 hPa Calm     80 % 0.0 in /  0 mm
01:22 16.4 °F /  -8.7 °C 12.9 °F /  -10.6 °C 1019.9 in /  34533.8 hPa Calm     80 % 0.0 in /  0 mm
01:27 16.4 °F /  -8.7 °C 12.9 °F /  -10.6 °C 1019.9 in /  34533.8 hPa Calm     80 % 0.0 in /  0 mm
01:32 16.3 °F /  -8.7 °C 12.8 °F /  -10.7 °C 1019.9 in /  34533.8 hPa Calm     80 % 0.0 in /  0 mm
01:37 16.2 °F /  -8.8 °C 12.9 °F /  -10.6 °C 1019.9 in /  34533.8 hPa Calm     81 % 0.0 in /  0 mm
01:42 15.9 °F /  -8.9 °C 13.0 °F /  -10.6 °C 1019.9 in /  34533.8 hPa Calm     83 % 0.0 in /  0 mm
01:47 15.8 °F /  -9 °C 12.9 °F /  -10.6 °C 1019.9 in /  34533.8 hPa Calm     83 % 0.0 in /  0 mm
01:52 15.9 °F /  -8.9 °C 13.0 °F /  -10.6 °C 1019.9 in /  34533.8 hPa Calm     83 % 0.0 in /  0 mm
01:57 15.8 °F /  -9 °C 12.9 °F /  -10.6 °C 1019.9 in /  34533.8 hPa Calm     83 % 0.0 in /  0 mm
02:02 15.6 °F /  -9.1 °C 12.9 °F /  -10.6 °C 1019.9 in /  34533.8 hPa Calm     84 % 0.0 in /  0 mm
02:07 15.6 °F /  -9.1 °C 13.1 °F /  -10.5 °C 1019.5 in /  34520.3 hPa Calm     85 % 0.0 in /  0 mm
02:12 15.8 °F /  -9 °C 13.1 °F /  -10.5 °C 1019.9 in /  34533.8 hPa Calm     84 % 0.0 in /  0 mm
02:17 16.1 °F /  -8.8 °C 13.2 °F /  -10.4 °C 1019.9 in /  34533.8 hPa Calm     83 % 0.0 in /  0 mm
02:22 16.0 °F /  -8.9 °C 13.1 °F /  -10.5 °C 1019.5 in /  34520.3 hPa Calm     83 % 0.0 in /  0 mm
02:27 15.8 °F /  -9 °C 12.9 °F /  -10.6 °C 1019.5 in /  34520.3 hPa Calm     83 % 0.0 in /  0 mm
02:32 15.7 °F /  -9.1 °C 13.0 °F /  -10.6 °C 1019.5 in /  34520.3 hPa Calm     84 % 0.0 in /  0 mm
02:37 15.8 °F /  -9 °C 13.1 °F /  -10.5 °C 1019.5 in /  34520.3 hPa Calm     84 % 0.0 in /  0 mm
02:42 15.7 °F /  -9.1 °C 13.0 °F /  -10.6 °C 1019.5 in /  34520.3 hPa Calm     84 % 0.0 in /  0 mm
02:52 15.4 °F /  -9.2 °C 12.9 °F /  -10.6 °C 1019.5 in /  34520.3 hPa Calm     85 % 0.0 in /  0 mm
02:57 15.3 °F /  -9.3 °C 12.8 °F /  -10.7 °C 1019.5 in /  34520.3 hPa Calm     85 % 0.0 in /  0 mm
03:02 15.3 °F /  -9.3 °C 12.8 °F /  -10.7 °C 1019.5 in /  34520.3 hPa Calm     85 % 0.0 in /  0 mm
03:07 15.2 °F /  -9.3 °C 12.7 °F /  -10.7 °C 1019.5 in /  34520.3 hPa Calm     85 % 0.0 in /  0 mm
03:12 15.1 °F /  -9.4 °C 12.8 °F /  -10.7 °C 1019.5 in /  34520.3 hPa Calm     86 % 0.0 in /  0 mm
03:17 15.1 °F /  -9.4 °C 12.8 °F /  -10.7 °C 1019.5 in /  34520.3 hPa Calm     86 % 0.0 in /  0 mm
03:22 15.1 °F /  -9.4 °C 12.8 °F /  -10.7 °C 1019.5 in /  34520.3 hPa Calm     86 % 0.0 in /  0 mm
03:27 15.1 °F /  -9.4 °C 12.8 °F /  -10.7 °C 1019.5 in /  34520.3 hPa Calm     86 % 0.0 in /  0 mm
03:32 15.1 °F /  -9.4 °C 12.8 °F /  -10.7 °C 1019.5 in /  34520.3 hPa Calm     86 % 0.0 in /  0 mm
03:37 15.2 °F /  -9.3 °C 12.9 °F /  -10.6 °C 1019.5 in /  34520.3 hPa Calm     86 % 0.0 in /  0 mm
03:42 15.1 °F /  -9.4 °C 12.8 °F /  -10.7 °C 1019.5 in /  34520.3 hPa Calm     86 % 0.0 in /  0 mm
03:47 14.9 °F /  -9.5 °C 12.6 °F /  -10.8 °C 1019.5 in /  34520.3 hPa Calm     86 % 0.0 in /  0 mm
03:52 14.7 °F /  -9.6 °C 12.6 °F /  -10.8 °C 1019.5 in /  34520.3 hPa Calm     87 % 0.0 in /  0 mm
03:57 14.7 °F /  -9.6 °C 12.6 °F /  -10.8 °C 1019.5 in /  34520.3 hPa Calm     87 % 0.0 in /  0 mm
04:02 14.6 °F /  -9.7 °C 12.5 °F /  -10.8 °C 1019.5 in /  34520.3 hPa Calm     87 % 0.0 in /  0 mm
04:07 14.6 °F /  -9.7 °C 12.5 °F /  -10.8 °C 1019.5 in /  34520.3 hPa Calm     87 % 0.0 in /  0 mm
04:12 14.5 °F /  -9.7 °C 12.5 °F /  -10.8 °C 1019.5 in /  34520.3 hPa Calm     88 % 0.0 in /  0 mm
04:17 14.4 °F /  -9.8 °C 12.4 °F /  -10.9 °C 1019.5 in /  34520.3 hPa Calm     88 % 0.0 in /  0 mm
04:22 14.6 °F /  -9.7 °C 12.6 °F /  -10.8 °C 1019.5 in /  34520.3 hPa Calm     88 % 0.0 in /  0 mm
04:27 14.8 °F /  -9.6 °C 12.8 °F /  -10.7 °C 1019.5 in /  34520.3 hPa Calm     88 % 0.0 in /  0 mm
04:32 14.8 °F /  -9.6 °C 12.7 °F /  -10.7 °C 1019.5 in /  34520.3 hPa Calm     87 % 0.0 in /  0 mm
04:37 14.6 °F /  -9.7 °C 12.5 °F /  -10.8 °C 1019.5 in /  34520.3 hPa Calm     87 % 0.0 in /  0 mm
04:42 14.4 °F /  -9.8 °C 12.4 °F /  -10.9 °C 1019.2 in /  34510.1 hPa Calm     88 % 0.0 in /  0 mm
04:47 14.3 °F /  -9.8 °C 12.3 °F /  -10.9 °C 1019.5 in /  34520.3 hPa Calm     88 % 0.0 in /  0 mm
04:52 14.2 °F /  -9.9 °C 12.2 °F /  -11 °C 1019.2 in /  34510.1 hPa Calm     88 % 0.0 in /  0 mm
04:57 14.2 °F /  -9.9 °C 12.2 °F /  -11 °C 1019.2 in /  34510.1 hPa Calm     88 % 0.0 in /  0 mm
05:02 14.2 °F /  -9.9 °C 12.2 °F /  -11 °C 1019.2 in /  34510.1 hPa Calm     88 % 0.0 in /  0 mm
05:07 14.1 °F /  -9.9 °C 12.1 °F /  -11.1 °C 1019.2 in /  34510.1 hPa Calm     88 % 0.0 in /  0 mm
05:12 14.1 °F /  -9.9 °C 12.3 °F /  -10.9 °C 1019.2 in /  34510.1 hPa Calm     89 % 0.0 in /  0 mm
05:17 14.4 °F /  -9.8 °C 12.6 °F /  -10.8 °C 1019.2 in /  34510.1 hPa NNW 3.2 mph /  5.1 km/h   89 % 0.0 in /  0 mm
05:22 14.6 °F /  -9.7 °C 12.6 °F /  -10.8 °C 1019.2 in /  34510.1 hPa NNW 1.6 mph /  2.6 km/h   88 % 0.0 in /  0 mm
05:27 14.6 °F /  -9.7 °C 12.5 °F /  -10.8 °C 1019.2 in /  34510.1 hPa North 1.6 mph /  2.6 km/h 4.8 mph /  7.7 km/h 87 % 0.0 in /  0 mm
05:32 14.5 °F /  -9.7 °C 12.5 °F /  -10.8 °C 1019.2 in /  34510.1 hPa North 1.6 mph /  2.6 km/h 4.8 mph /  7.7 km/h 88 % 0.0 in /  0 mm
05:37 14.6 °F /  -9.7 °C 12.6 °F /  -10.8 °C 1019.2 in /  34510.1 hPa NNW 1.6 mph /  2.6 km/h 3.2 mph /  5.1 km/h 88 % 0.0 in /  0 mm
05:42 14.6 °F /  -9.7 °C 12.5 °F /  -10.8 °C 1019.2 in /  34510.1 hPa Calm   3.2 mph /  5.1 km/h 87 % 0.0 in /  0 mm
05:52 14.4 °F /  -9.8 °C 12.4 °F /  -10.9 °C 1019.2 in /  34510.1 hPa Calm   3.2 mph /  5.1 km/h 88 % 0.0 in /  0 mm
05:57 14.5 °F /  -9.7 °C 12.5 °F /  -10.8 °C 1019.2 in /  34510.1 hPa Calm   3.2 mph /  5.1 km/h 88 % 0.0 in /  0 mm
06:02 14.6 °F /  -9.7 °C 12.6 °F /  -10.8 °C 1019.2 in /  34510.1 hPa Calm   3.2 mph /  5.1 km/h 88 % 0.0 in /  0 mm
06:12 14.4 °F /  -9.8 °C 12.4 °F /  -10.9 °C 1018.8 in /  34496.6 hPa Calm   1.6 mph /  2.6 km/h 88 % 0.0 in /  0 mm
06:17 14.4 °F /  -9.8 °C 12.4 °F /  -10.9 °C 1018.8 in /  34496.6 hPa Calm     88 % 0.0 in /  0 mm
06:22 14.4 °F /  -9.8 °C 12.8 °F /  -10.7 °C 1018.8 in /  34496.6 hPa Calm     90 % 0.0 in /  0 mm
06:27 14.3 °F /  -9.8 °C 12.5 °F /  -10.8 °C 1019.2 in /  34510.1 hPa Calm     89 % 0.0 in /  0 mm
06:32 14.4 °F /  -9.8 °C 12.6 °F /  -10.8 °C 1018.8 in /  34496.6 hPa Calm     89 % 0.0 in /  0 mm
06:42 15.2 °F /  -9.3 °C 13.0 °F /  -10.6 °C 1018.8 in /  34496.6 hPa Calm     87 % 0.0 in /  0 mm
06:52 15.8 °F /  -9 °C 13.3 °F /  -10.4 °C 1018.8 in /  34496.6 hPa Calm     85 % 0.0 in /  0 mm
06:57 16.0 °F /  -8.9 °C 13.3 °F /  -10.4 °C 1018.8 in /  34496.6 hPa Calm     84 % 0.0 in /  0 mm
07:02 16.3 °F /  -8.7 °C 13.6 °F /  -10.2 °C 1018.8 in /  34496.6 hPa Calm     84 % 0.0 in /  0 mm
07:12 17.1 °F /  -8.3 °C 14.0 °F /  -10 °C 1018.8 in /  34496.6 hPa Calm     82 % 0.0 in /  0 mm
07:17 17.3 °F /  -8.2 °C 14.2 °F /  -9.9 °C 1019.2 in /  34510.1 hPa Calm     82 % 0.0 in /  0 mm
07:22 17.6 °F /  -8 °C 14.5 °F /  -9.7 °C 1019.2 in /  34510.1 hPa Calm     82 % 0.0 in /  0 mm
07:27 17.9 °F /  -7.8 °C 14.6 °F /  -9.7 °C 1019.2 in /  34510.1 hPa Calm     81 % 0.0 in /  0 mm
07:42 18.6 °F /  -7.4 °C 14.9 °F /  -9.5 °C 1019.2 in /  34510.1 hPa Calm     79 % 0.0 in /  0 mm
07:47 19.1 °F /  -7.2 °C 15.2 °F /  -9.3 °C 1019.2 in /  34510.1 hPa Calm     78 % 0.0 in /  0 mm
07:52 19.1 °F /  -7.2 °C 15.0 °F /  -9.4 °C 1019.2 in /  34510.1 hPa Calm     77 % 0.0 in /  0 mm
07:57 19.1 °F /  -7.2 °C 15.0 °F /  -9.4 °C 1019.2 in /  34510.1 hPa Calm     77 % 0.0 in /  0 mm
08:02 19.2 °F /  -7.1 °C 14.5 °F /  -9.7 °C 1019.2 in /  34510.1 hPa Calm     74 % 0.0 in /  0 mm
08:12 19.6 °F /  -6.9 °C 15.5 °F /  -9.2 °C 1019.2 in /  34510.1 hPa Calm     77 % 0.0 in /  0 mm
08:17 19.7 °F /  -6.8 °C 15.6 °F /  -9.1 °C 1019.2 in /  34510.1 hPa Calm     77 % 0.0 in /  0 mm
08:27 19.9 °F /  -6.7 °C 15.1 °F /  -9.4 °C 1019.2 in /  34510.1 hPa Calm     74 % 0.0 in /  0 mm
08:32 20.3 °F /  -6.5 °C 15.5 °F /  -9.2 °C 1019.2 in /  34510.1 hPa Calm     74 % 0.0 in /  0 mm
08:37 20.7 °F /  -6.3 °C 14.8 °F /  -9.6 °C 1018.8 in /  34496.6 hPa Calm     69 % 0.0 in /  0 mm
08:42 21.0 °F /  -6.1 °C 15.1 °F /  -9.4 °C 1018.8 in /  34496.6 hPa Calm     69 % 0.0 in /  0 mm
08:47 21.4 °F /  -5.9 °C 15.0 °F /  -9.4 °C 1018.8 in /  34496.6 hPa East 4.8 mph /  7.7 km/h   67 % 0.0 in /  0 mm
08:52 21.3 °F /  -5.9 °C 14.7 °F /  -9.6 °C 1018.8 in /  34496.6 hPa East 1.6 mph /  2.6 km/h   66 % 0.0 in /  0 mm
09:02 21.7 °F /  -5.7 °C 15.1 °F /  -9.4 °C 1018.8 in /  34496.6 hPa Calm   4.8 mph /  7.7 km/h 66 % 0.0 in /  0 mm
09:12 22.2 °F /  -5.4 °C 15.3 °F /  -9.3 °C 1019.2 in /  34510.1 hPa Calm   4.8 mph /  7.7 km/h 65 % 0.0 in /  0 mm
09:17 22.3 °F /  -5.4 °C 15.2 °F /  -9.3 °C 1018.8 in /  34496.6 hPa East 1.6 mph /  2.6 km/h 3.2 mph /  5.1 km/h 64 % 0.0 in /  0 mm
09:22 22.4 °F /  -5.3 °C 15.7 °F /  -9.1 °C 1019.2 in /  34510.1 hPa East 3.2 mph /  5.1 km/h 3.2 mph /  5.1 km/h 66 % 0.0 in /  0 mm
09:27 22.6 °F /  -5.2 °C 15.4 °F /  -9.2 °C 1019.2 in /  34510.1 hPa ENE 1.6 mph /  2.6 km/h 4.8 mph /  7.7 km/h 64 % 0.0 in /  0 mm
09:32 22.8 °F /  -5.1 °C 15.4 °F /  -9.2 °C 1018.8 in /  34496.6 hPa SE 3.2 mph /  5.1 km/h 4.8 mph /  7.7 km/h 63 % 0.0 in /  0 mm
09:37 22.8 °F /  -5.1 °C 15.9 °F /  -8.9 °C 1018.8 in /  34496.6 hPa NE 3.2 mph /  5.1 km/h 6.4 mph /  10.3 km/h 65 % 0.0 in /  0 mm
09:42 23.3 °F /  -4.8 °C 15.9 °F /  -8.9 °C 1018.8 in /  34496.6 hPa East 1.6 mph /  2.6 km/h 6.4 mph /  10.3 km/h 63 % 0.0 in /  0 mm
09:52 23.6 °F /  -4.7 °C 16.1 °F /  -8.8 °C 1018.8 in /  34496.6 hPa East 1.6 mph /  2.6 km/h 8.0 mph /  12.9 km/h 63 % 0.0 in /  0 mm
09:57 24.1 °F /  -4.4 °C 16.4 °F /  -8.7 °C 1018.8 in /  34496.6 hPa Calm   8.0 mph /  12.9 km/h 62 % 0.0 in /  0 mm
10:02 24.3 °F /  -4.3 °C 16.0 °F /  -8.9 °C 1018.8 in /  34496.6 hPa ESE 3.2 mph /  5.1 km/h 8.0 mph /  12.9 km/h 60 % 0.0 in /  0 mm
10:12 24.3 °F /  -4.3 °C 16.0 °F /  -8.9 °C 1018.8 in /  34496.6 hPa SE 1.6 mph /  2.6 km/h 6.4 mph /  10.3 km/h 60 % 0.0 in /  0 mm
10:17 24.3 °F /  -4.3 °C 15.8 °F /  -9 °C 1018.8 in /  34496.6 hPa SE 3.2 mph /  5.1 km/h 6.4 mph /  10.3 km/h 59 % 0.0 in /  0 mm
10:22 24.3 °F /  -4.3 °C 15.8 °F /  -9 °C 1018.8 in /  34496.6 hPa SSE 1.6 mph /  2.6 km/h 6.4 mph /  10.3 km/h 59 % 0.0 in /  0 mm
10:27 24.4 °F /  -4.2 °C 15.6 °F /  -9.1 °C 1018.8 in /  34496.6 hPa Calm   4.8 mph /  7.7 km/h 58 % 0.0 in /  0 mm
10:32 24.9 °F /  -3.9 °C 16.6 °F /  -8.6 °C 1018.8 in /  34496.6 hPa ENE 3.2 mph /  5.1 km/h 4.8 mph /  7.7 km/h 60 % 0.0 in /  0 mm
10:37 25.2 °F /  -3.8 °C 15.5 °F /  -9.2 °C 1018.8 in /  34496.6 hPa ENE 3.2 mph /  5.1 km/h 6.4 mph /  10.3 km/h 55 % 0.0 in /  0 mm
10:42 25.2 °F /  -3.8 °C 15.8 °F /  -9 °C 1018.5 in /  34486.4 hPa East 3.2 mph /  5.1 km/h 6.4 mph /  10.3 km/h 56 % 0.0 in /  0 mm
10:47 25.3 °F /  -3.7 °C 15.9 °F /  -8.9 °C 1018.5 in /  34486.4 hPa NE 1.6 mph /  2.6 km/h 9.7 mph /  15.6 km/h 56 % 0.0 in /  0 mm
10:52 25.4 °F /  -3.7 °C 15.4 °F /  -9.2 °C 1018.5 in /  34486.4 hPa SSE 3.2 mph /  5.1 km/h 9.7 mph /  15.6 km/h 54 % 0.0 in /  0 mm
10:57 25.7 °F /  -3.5 °C 16.0 °F /  -8.9 °C 1018.5 in /  34486.4 hPa SE 4.8 mph /  7.7 km/h 8.0 mph /  12.9 km/h 55 % 0.0 in /  0 mm
11:02 25.8 °F /  -3.4 °C 15.8 °F /  -9 °C 1018.5 in /  34486.4 hPa Calm   8.0 mph /  12.9 km/h 54 % 0.0 in /  0 mm
11:07 26.1 °F /  -3.3 °C 15.8 °F /  -9 °C 1018.5 in /  34486.4 hPa Calm   8.0 mph /  12.9 km/h 53 % 0.0 in /  0 mm
11:12 26.3 °F /  -3.2 °C 15.7 °F /  -9.1 °C 1018.5 in /  34486.4 hPa SSE 1.6 mph /  2.6 km/h 8.0 mph /  12.9 km/h 52 % 0.0 in /  0 mm
11:17 26.4 °F /  -3.1 °C 16.3 °F /  -8.7 °C 1018.5 in /  34486.4 hPa East 3.2 mph /  5.1 km/h 8.0 mph /  12.9 km/h 54 % 0.0 in /  0 mm
11:22 26.4 °F /  -3.1 °C 15.8 °F /  -9 °C 1018.5 in /  34486.4 hPa Calm   8.0 mph /  12.9 km/h 52 % 0.0 in /  0 mm
11:27 26.4 °F /  -3.1 °C 15.8 °F /  -9 °C 1018.5 in /  34486.4 hPa Calm   8.0 mph /  12.9 km/h 52 % 0.0 in /  0 mm
11:37 27.1 °F /  -2.7 °C 15.5 °F /  -9.2 °C 1018.5 in /  34486.4 hPa East 3.2 mph /  5.1 km/h 6.4 mph /  10.3 km/h 49 % 0.0 in /  0 mm
11:42 26.5 °F /  -3.1 °C 14.3 °F /  -9.8 °C 1018.5 in /  34486.4 hPa East 1.6 mph /  2.6 km/h 6.4 mph /  10.3 km/h 47 % 0.0 in /  0 mm
11:47 26.6 °F /  -3 °C 14.4 °F /  -9.8 °C 1018.2 in /  34476.3 hPa Calm   6.4 mph /  10.3 km/h 47 % 0.0 in /  0 mm
11:52 26.7 °F /  -2.9 °C 14.8 °F /  -9.6 °C 1018.5 in /  34486.4 hPa Calm   6.4 mph /  10.3 km/h 48 % 0.0 in /  0 mm
11:57 26.9 °F /  -2.8 °C 14.6 °F /  -9.7 °C 1018.5 in /  34486.4 hPa Calm   6.4 mph /  10.3 km/h 47 % 0.0 in /  0 mm
12:02 27.4 °F /  -2.6 °C 15.7 °F /  -9.1 °C 1018.2 in /  34476.3 hPa ESE 1.6 mph /  2.6 km/h 6.4 mph /  10.3 km/h 49 % 0.0 in /  0 mm
12:07 27.3 °F /  -2.6 °C 15.0 °F /  -9.4 °C 1018.2 in /  34476.3 hPa ENE 3.2 mph /  5.1 km/h 6.4 mph /  10.3 km/h 47 % 0.0 in /  0 mm
12:12 26.9 °F /  -2.8 °C 15.0 °F /  -9.4 °C 1018.2 in /  34476.3 hPa East 4.8 mph /  7.7 km/h 8.0 mph /  12.9 km/h 48 % 0.0 in /  0 mm
12:17 27.2 °F /  -2.7 °C 15.2 °F /  -9.3 °C 1018.2 in /  34476.3 hPa Calm   8.0 mph /  12.9 km/h 48 % 0.0 in /  0 mm
12:22 27.8 °F /  -2.3 °C 16.1 °F /  -8.8 °C 1018.2 in /  34476.3 hPa Calm   8.0 mph /  12.9 km/h 49 % 0.0 in /  0 mm
12:27 27.8 °F /  -2.3 °C 14.8 °F /  -9.6 °C 1018.2 in /  34476.3 hPa SE 6.4 mph /  10.3 km/h 9.7 mph /  15.6 km/h 45 % 0.0 in /  0 mm
12:32 27.7 °F /  -2.4 °C 14.0 °F /  -10 °C 1018.2 in /  34476.3 hPa ESE 3.2 mph /  5.1 km/h 9.7 mph /  15.6 km/h 43 % 0.0 in /  0 mm
12:37 27.6 °F /  -2.4 °C 13.5 °F /  -10.3 °C 1018.2 in /  34476.3 hPa Calm   9.7 mph /  15.6 km/h 42 % 0.0 in /  0 mm
12:42 28.1 °F /  -2.2 °C 14.7 °F /  -9.6 °C 1018.2 in /  34476.3 hPa East 3.2 mph /  5.1 km/h 8.0 mph /  12.9 km/h 44 % 0.0 in /  0 mm
12:47 28.2 °F /  -2.1 °C 14.8 °F /  -9.6 °C 1018.2 in /  34476.3 hPa Calm   6.4 mph /  10.3 km/h 44 % 0.0 in /  0 mm
12:52 28.3 °F /  -2.1 °C 14.9 °F /  -9.5 °C 1018.2 in /  34476.3 hPa West 3.2 mph /  5.1 km/h 6.4 mph /  10.3 km/h 44 % 0.0 in /  0 mm
12:57 28.0 °F /  -2.2 °C 14.6 °F /  -9.7 °C 1018.2 in /  34476.3 hPa SSW 4.8 mph /  7.7 km/h 6.4 mph /  10.3 km/h 44 % 0.0 in /  0 mm
13:02 28.2 °F /  -2.1 °C 15.1 °F /  -9.4 °C 1017.8 in /  34462.7 hPa East 3.2 mph /  5.1 km/h 6.4 mph /  10.3 km/h 45 % 0.0 in /  0 mm
13:07 27.8 °F /  -2.3 °C 14.4 °F /  -9.8 °C 1017.8 in /  34462.7 hPa North 1.6 mph /  2.6 km/h 8.0 mph /  12.9 km/h 44 % 0.0 in /  0 mm
13:12 28.2 °F /  -2.1 °C 15.1 °F /  -9.4 °C 1017.8 in /  34462.7 hPa East 3.2 mph /  5.1 km/h 8.0 mph /  12.9 km/h 45 % 0.0 in /  0 mm
13:17 28.4 °F /  -2 °C 15.0 °F /  -9.4 °C 1017.8 in /  34462.7 hPa SE 1.6 mph /  2.6 km/h 8.0 mph /  12.9 km/h 44 % 0.0 in /  0 mm
13:22 28.4 °F /  -2 °C 16.0 °F /  -8.9 °C 1017.8 in /  34462.7 hPa SSE 1.6 mph /  2.6 km/h 4.8 mph /  7.7 km/h 47 % 0.0 in /  0 mm
13:32 28.9 °F /  -1.7 °C 15.4 °F /  -9.2 °C 1017.8 in /  34462.7 hPa SE 1.6 mph /  2.6 km/h 6.4 mph /  10.3 km/h 44 % 0.0 in /  0 mm
13:37 28.7 °F /  -1.8 °C 14.1 °F /  -9.9 °C 1017.8 in /  34462.7 hPa Calm   12.9 mph /  20.8 km/h 41 % 0.0 in /  0 mm
13:42 28.6 °F /  -1.9 °C 14.1 °F /  -9.9 °C 1017.8 in /  34462.7 hPa NW 1.6 mph /  2.6 km/h 12.9 mph /  20.8 km/h 41 % 0.0 in /  0 mm
13:47 28.9 °F /  -1.7 °C 14.7 °F /  -9.6 °C 1017.8 in /  34462.7 hPa Calm   12.9 mph /  20.8 km/h 42 % 0.0 in /  0 mm
13:52 29.4 °F /  -1.4 °C 15.5 °F /  -9.2 °C 1017.8 in /  34462.7 hPa South 6.4 mph /  10.3 km/h 8.0 mph /  12.9 km/h 43 % 0.0 in /  0 mm
13:57 29.7 °F /  -1.3 °C 14.7 °F /  -9.6 °C 1017.8 in /  34462.7 hPa SSW 6.4 mph /  10.3 km/h 8.0 mph /  12.9 km/h 40 % 0.0 in /  0 mm
14:02 29.4 °F /  -1.4 °C 14.8 °F /  -9.6 °C 1017.5 in /  34452.6 hPa SW 3.2 mph /  5.1 km/h 9.7 mph /  15.6 km/h 41 % 0.0 in /  0 mm
14:07 29.4 °F /  -1.4 °C 15.1 °F /  -9.4 °C 1017.5 in /  34452.6 hPa WSW 1.6 mph /  2.6 km/h 9.7 mph /  15.6 km/h 42 % 0.0 in /  0 mm
14:12 29.5 °F /  -1.4 °C 13.7 °F /  -10.2 °C 1017.5 in /  34452.6 hPa SSW 12.9 mph /  20.8 km/h 12.9 mph /  20.8 km/h 38 % 0.0 in /  0 mm
14:17 29.4 °F /  -1.4 °C 14.0 °F /  -10 °C 1017.5 in /  34452.6 hPa SW 6.4 mph /  10.3 km/h 12.9 mph /  20.8 km/h 39 % 0.0 in /  0 mm
14:22 29.4 °F /  -1.4 °C 13.2 °F /  -10.4 °C 1017.5 in /  34452.6 hPa SW 12.9 mph /  20.8 km/h 12.9 mph /  20.8 km/h 37 % 0.0 in /  0 mm
14:27 29.3 °F /  -1.5 °C 14.7 °F /  -9.6 °C 1017.5 in /  34452.6 hPa SSW 6.4 mph /  10.3 km/h 12.9 mph /  20.8 km/h 41 % 0.0 in /  0 mm
14:32 29.4 °F /  -1.4 °C 14.0 °F /  -10 °C 1017.5 in /  34452.6 hPa WSW 6.4 mph /  10.3 km/h 12.9 mph /  20.8 km/h 39 % 0.0 in /  0 mm
14:37 29.5 °F /  -1.4 °C 14.1 °F /  -9.9 °C 1017.2 in /  34442.4 hPa ESE 3.2 mph /  5.1 km/h 12.9 mph /  20.8 km/h 39 % 0.0 in /  0 mm
14:42 29.7 °F /  -1.3 °C 14.3 °F /  -9.8 °C 1017.2 in /  34442.4 hPa West 3.2 mph /  5.1 km/h 9.7 mph /  15.6 km/h 39 % 0.0 in /  0 mm
14:47 29.8 °F /  -1.2 °C 13.1 °F /  -10.5 °C 1017.2 in /  34442.4 hPa SW 4.8 mph /  7.7 km/h 12.9 mph /  20.8 km/h 36 % 0.0 in /  0 mm
14:52 29.8 °F /  -1.2 °C 14.0 °F /  -10 °C 1017.2 in /  34442.4 hPa West 4.8 mph /  7.7 km/h 12.9 mph /  20.8 km/h 38 % 0.0 in /  0 mm
14:57 29.9 °F /  -1.2 °C 14.0 °F /  -10 °C 1017.2 in /  34442.4 hPa SW 3.2 mph /  5.1 km/h 11.3 mph /  18.2 km/h 38 % 0.0 in /  0 mm
15:02 30.1 °F /  -1.1 °C 14.2 °F /  -9.9 °C 1017.2 in /  34442.4 hPa SSW 12.9 mph /  20.8 km/h 12.9 mph /  20.8 km/h 38 % 0.0 in /  0 mm
15:07 30.4 °F /  -0.9 °C 14.9 °F /  -9.5 °C 1017.2 in /  34442.4 hPa SW 4.8 mph /  7.7 km/h 17.7 mph /  28.5 km/h 39 % 0.0 in /  0 mm
15:12 30.4 °F /  -0.9 °C 13.2 °F /  -10.4 °C 1017.2 in /  34442.4 hPa SSW 8.0 mph /  12.9 km/h 17.7 mph /  28.5 km/h 35 % 0.0 in /  0 mm
15:17 30.2 °F /  -1 °C 13.9 °F /  -10.1 °C 1017.2 in /  34442.4 hPa SSW 9.7 mph /  15.6 km/h 16.1 mph /  25.9 km/h 37 % 0.0 in /  0 mm
15:22 29.9 °F /  -1.2 °C 12.8 °F /  -10.7 °C 1017.2 in /  34442.4 hPa SW 12.9 mph /  20.8 km/h 16.1 mph /  25.9 km/h 35 % 0.0 in /  0 mm
15:27 29.8 °F /  -1.2 °C 13.1 °F /  -10.5 °C 1017.2 in /  34442.4 hPa West 6.4 mph /  10.3 km/h 16.1 mph /  25.9 km/h 36 % 0.0 in /  0 mm
15:32 30.1 °F /  -1.1 °C 13.0 °F /  -10.6 °C 1017.2 in /  34442.4 hPa SSW 6.4 mph /  10.3 km/h 16.1 mph /  25.9 km/h 35 % 0.0 in /  0 mm
15:37 29.9 °F /  -1.2 °C 13.2 °F /  -10.4 °C 1017.2 in /  34442.4 hPa WSW 11.3 mph /  18.2 km/h 16.1 mph /  25.9 km/h 36 % 0.0 in /  0 mm
15:42 29.9 °F /  -1.2 °C 14.0 °F /  -10 °C 1017.2 in /  34442.4 hPa NNW 1.6 mph /  2.6 km/h 14.5 mph /  23.3 km/h 38 % 0.0 in /  0 mm
15:47 30.1 °F /  -1.1 °C 13.8 °F /  -10.1 °C 1017.2 in /  34442.4 hPa WSW 4.8 mph /  7.7 km/h 14.5 mph /  23.3 km/h 37 % 0.0 in /  0 mm
15:52 29.9 °F /  -1.2 °C 14.4 °F /  -9.8 °C 1017.2 in /  34442.4 hPa WNW 3.2 mph /  5.1 km/h 17.7 mph /  28.5 km/h 39 % 0.0 in /  0 mm
15:57 29.9 °F /  -1.2 °C 14.0 °F /  -10 °C 1017.2 in /  34442.4 hPa WNW 4.8 mph /  7.7 km/h 17.7 mph /  28.5 km/h 38 % 0.0 in /  0 mm
16:02 29.9 °F /  -1.2 °C 14.4 °F /  -9.8 °C 1017.2 in /  34442.4 hPa WNW 9.7 mph /  15.6 km/h 17.7 mph /  28.5 km/h 39 % 0.0 in /  0 mm
16:12 29.8 °F /  -1.2 °C 14.4 °F /  -9.8 °C 1017.2 in /  34442.4 hPa WSW 6.4 mph /  10.3 km/h 14.5 mph /  23.3 km/h 39 % 0.0 in /  0 mm
16:17 30.3 °F /  -0.9 °C 14.4 °F /  -9.8 °C 1017.2 in /  34442.4 hPa SW 8.0 mph /  12.9 km/h 14.5 mph /  23.3 km/h 38 % 0.0 in /  0 mm
16:22 30.1 °F /  -1.1 °C 14.2 °F /  -9.9 °C 1017.2 in /  34442.4 hPa West 8.0 mph /  12.9 km/h 12.9 mph /  20.8 km/h 38 % 0.0 in /  0 mm
16:27 29.7 °F /  -1.3 °C 14.7 °F /  -9.6 °C 1017.2 in /  34442.4 hPa WNW 4.8 mph /  7.7 km/h 12.9 mph /  20.8 km/h 40 % 0.0 in /  0 mm
16:32 29.8 °F /  -1.2 °C 15.1 °F /  -9.4 °C 1017.2 in /  34442.4 hPa West 3.2 mph /  5.1 km/h 11.3 mph /  18.2 km/h 41 % 0.0 in /  0 mm
16:37 29.9 °F /  -1.2 °C 14.4 °F /  -9.8 °C 1017.2 in /  34442.4 hPa SW 1.6 mph /  2.6 km/h 11.3 mph /  18.2 km/h 39 % 0.0 in /  0 mm
16:42 30.2 °F /  -1 °C 14.7 °F /  -9.6 °C 1016.8 in /  34428.8 hPa WSW 6.4 mph /  10.3 km/h 11.3 mph /  18.2 km/h 39 % 0.0 in /  0 mm
16:47 30.2 °F /  -1 °C 14.7 °F /  -9.6 °C 1016.8 in /  34428.8 hPa SSE 1.6 mph /  2.6 km/h 11.3 mph /  18.2 km/h 39 % 0.0 in /  0 mm
16:52 30.6 °F /  -0.8 °C 15.5 °F /  -9.2 °C 1016.8 in /  34428.8 hPa West 1.6 mph /  2.6 km/h 9.7 mph /  15.6 km/h 40 % 0.0 in /  0 mm
16:57 30.3 °F /  -0.9 °C 15.2 °F /  -9.3 °C 1016.8 in /  34428.8 hPa SW 9.7 mph /  15.6 km/h 9.7 mph /  15.6 km/h 40 % 0.0 in /  0 mm
17:02 30.0 °F /  -1.1 °C 14.9 °F /  -9.5 °C 1016.8 in /  34428.8 hPa WSW 8.0 mph /  12.9 km/h 11.3 mph /  18.2 km/h 40 % 0.0 in /  0 mm
17:07 30.1 °F /  -1.1 °C 15.4 °F /  -9.2 °C 1016.8 in /  34428.8 hPa WSW 8.0 mph /  12.9 km/h 11.3 mph /  18.2 km/h 41 % 0.0 in /  0 mm
17:12 30.0 °F /  -1.1 °C 15.3 °F /  -9.3 °C 1016.8 in /  34428.8 hPa WNW 8.0 mph /  12.9 km/h 12.9 mph /  20.8 km/h 41 % 0.0 in /  0 mm
17:17 29.9 °F /  -1.2 °C 15.2 °F /  -9.3 °C 1016.8 in /  34428.8 hPa North 4.8 mph /  7.7 km/h 12.9 mph /  20.8 km/h 41 % 0.0 in /  0 mm
17:22 30.2 °F /  -1 °C 15.9 °F /  -8.9 °C 1016.8 in /  34428.8 hPa NW 4.8 mph /  7.7 km/h 12.9 mph /  20.8 km/h 42 % 0.0 in /  0 mm
17:27 30.3 °F /  -0.9 °C 15.2 °F /  -9.3 °C 1016.8 in /  34428.8 hPa WNW 6.4 mph /  10.3 km/h 12.9 mph /  20.8 km/h 40 % 0.0 in /  0 mm
17:32 30.1 °F /  -1.1 °C 15.0 °F /  -9.4 °C 1016.8 in /  34428.8 hPa WNW 4.8 mph /  7.7 km/h 12.9 mph /  20.8 km/h 40 % 0.0 in /  0 mm
17:42 30.6 °F /  -0.8 °C 15.8 °F /  -9 °C 1016.5 in /  34418.7 hPa WNW 3.2 mph /  5.1 km/h 14.5 mph /  23.3 km/h 41 % 0.0 in /  0 mm
17:47 30.4 °F /  -0.9 °C 15.3 °F /  -9.3 °C 1016.5 in /  34418.7 hPa NNE 1.6 mph /  2.6 km/h 11.3 mph /  18.2 km/h 40 % 0.0 in /  0 mm
17:52 30.4 °F /  -0.9 °C 15.3 °F /  -9.3 °C 1016.5 in /  34418.7 hPa WSW 1.6 mph /  2.6 km/h 11.3 mph /  18.2 km/h 40 % 0.0 in /  0 mm
17:57 30.3 °F /  -0.9 °C 15.2 °F /  -9.3 °C 1016.5 in /  34418.7 hPa SW 4.8 mph /  7.7 km/h 11.3 mph /  18.2 km/h 40 % 0.0 in /  0 mm
18:02 30.3 °F /  -0.9 °C 16.0 °F /  -8.9 °C 1016.1 in /  34405.1 hPa WNW 4.8 mph /  7.7 km/h 11.3 mph /  18.2 km/h 42 % 0.0 in /  0 mm
18:07 30.4 °F /  -0.9 °C 16.4 °F /  -8.7 °C 1016.5 in /  34418.7 hPa WSW 4.8 mph /  7.7 km/h 11.3 mph /  18.2 km/h 43 % 0.0 in /  0 mm
18:12 30.4 °F /  -0.9 °C 15.7 °F /  -9.1 °C 1016.5 in /  34418.7 hPa WNW 4.8 mph /  7.7 km/h 11.3 mph /  18.2 km/h 41 % 0.0 in /  0 mm
18:17 30.4 °F /  -0.9 °C 15.7 °F /  -9.1 °C 1016.5 in /  34418.7 hPa WNW 3.2 mph /  5.1 km/h 9.7 mph /  15.6 km/h 41 % 0.0 in /  0 mm
18:22 30.2 °F /  -1 °C 15.9 °F /  -8.9 °C 1016.1 in /  34405.1 hPa WSW 4.8 mph /  7.7 km/h 9.7 mph /  15.6 km/h 42 % 0.0 in /  0 mm
18:27 30.3 °F /  -0.9 °C 16.0 °F /  -8.9 °C 1016.1 in /  34405.1 hPa West 1.6 mph /  2.6 km/h 11.3 mph /  18.2 km/h 42 % 0.0 in /  0 mm
18:32 30.7 °F /  -0.7 °C 15.9 °F /  -8.9 °C 1016.1 in /  34405.1 hPa Calm   11.3 mph /  18.2 km/h 41 % 0.0 in /  0 mm
18:37 31.0 °F /  -0.6 °C 16.2 °F /  -8.8 °C 1016.1 in /  34405.1 hPa WNW 6.4 mph /  10.3 km/h 6.4 mph /  10.3 km/h 41 % 0.0 in /  0 mm
18:42 30.7 °F /  -0.7 °C 16.3 °F /  -8.7 °C 1016.1 in /  34405.1 hPa WNW 6.4 mph /  10.3 km/h 8.0 mph /  12.9 km/h 42 % 0.0 in /  0 mm
18:47 30.4 °F /  -0.9 °C 16.4 °F /  -8.7 °C 1016.1 in /  34405.1 hPa WNW 11.3 mph /  18.2 km/h 17.7 mph /  28.5 km/h 43 % 0.0 in /  0 mm
18:52 30.2 °F /  -1 °C 16.6 °F /  -8.6 °C 1016.1 in /  34405.1 hPa WNW 12.9 mph /  20.8 km/h 17.7 mph /  28.5 km/h 44 % 0.0 in /  0 mm
18:57 30.2 °F /  -1 °C 17.3 °F /  -8.2 °C 1016.1 in /  34405.1 hPa WNW 9.7 mph /  15.6 km/h 17.7 mph /  28.5 km/h 46 % 0.0 in /  0 mm
19:02 30.3 °F /  -0.9 °C 17.0 °F /  -8.3 °C 1016.1 in /  34405.1 hPa West 4.8 mph /  7.7 km/h 14.5 mph /  23.3 km/h 45 % 0.0 in /  0 mm
19:12 29.9 °F /  -1.2 °C 17.0 °F /  -8.3 °C 1016.1 in /  34405.1 hPa WSW 8.0 mph /  12.9 km/h 12.9 mph /  20.8 km/h 46 % 0.0 in /  0 mm
19:17 29.9 °F /  -1.2 °C 17.0 °F /  -8.3 °C 1016.1 in /  34405.1 hPa WNW 6.4 mph /  10.3 km/h 14.5 mph /  23.3 km/h 46 % 0.0 in /  0 mm
19:22 29.8 °F /  -1.2 °C 16.9 °F /  -8.4 °C 1016.1 in /  34405.1 hPa West 4.8 mph /  7.7 km/h 14.5 mph /  23.3 km/h 46 % 0.0 in /  0 mm
19:27 29.7 °F /  -1.3 °C 16.8 °F /  -8.4 °C 1016.1 in /  34405.1 hPa West 6.4 mph /  10.3 km/h 14.5 mph /  23.3 km/h 46 % 0.0 in /  0 mm
19:32 29.6 °F /  -1.3 °C 16.8 °F /  -8.4 °C 1016.1 in /  34405.1 hPa West 8.0 mph /  12.9 km/h 14.5 mph /  23.3 km/h 46 % 0.0 in /  0 mm
19:37 29.6 °F /  -1.3 °C 17.1 °F /  -8.3 °C 1016.5 in /  34418.7 hPa WNW 8.0 mph /  12.9 km/h 16.1 mph /  25.9 km/h 47 % 0.0 in /  0 mm
19:42 29.4 °F /  -1.4 °C 17.2 °F /  -8.2 °C 1016.5 in /  34418.7 hPa WNW 1.6 mph /  2.6 km/h 16.1 mph /  25.9 km/h 48 % 0.0 in /  0 mm
19:47 29.2 °F /  -1.6 °C 17.1 °F /  -8.3 °C 1016.5 in /  34418.7 hPa NNW 4.8 mph /  7.7 km/h 16.1 mph /  25.9 km/h 48 % 0.0 in /  0 mm
19:52 29.0 °F /  -1.7 °C 16.9 °F /  -8.4 °C 1016.5 in /  34418.7 hPa WNW 8.0 mph /  12.9 km/h 17.7 mph /  28.5 km/h 48 % 0.0 in /  0 mm
19:57 28.9 °F /  -1.7 °C 17.1 °F /  -8.3 °C 1016.5 in /  34418.7 hPa WNW 8.0 mph /  12.9 km/h 17.7 mph /  28.5 km/h 49 % 0.0 in /  0 mm
20:02 28.8 °F /  -1.8 °C 17.3 °F /  -8.2 °C 1016.5 in /  34418.7 hPa NW 3.2 mph /  5.1 km/h 17.7 mph /  28.5 km/h 50 % 0.0 in /  0 mm
20:12 28.7 °F /  -1.8 °C 16.9 °F /  -8.4 °C 1016.5 in /  34418.7 hPa WNW 4.8 mph /  7.7 km/h 16.1 mph /  25.9 km/h 49 % 0.0 in /  0 mm
20:17 28.6 °F /  -1.9 °C 16.8 °F /  -8.4 °C 1016.5 in /  34418.7 hPa West 4.8 mph /  7.7 km/h 12.9 mph /  20.8 km/h 49 % 0.0 in /  0 mm
20:22 28.6 °F /  -1.9 °C 16.8 °F /  -8.4 °C 1016.5 in /  34418.7 hPa West 4.8 mph /  7.7 km/h 12.9 mph /  20.8 km/h 49 % 0.0 in /  0 mm
20:27 28.4 °F /  -2 °C 17.0 °F /  -8.3 °C 1016.8 in /  34428.8 hPa WNW 8.0 mph /  12.9 km/h 12.9 mph /  20.8 km/h 50 % 0.0 in /  0 mm
20:32 28.2 °F /  -2.1 °C 16.5 °F /  -8.6 °C 1016.8 in /  34428.8 hPa West 9.7 mph /  15.6 km/h 16.1 mph /  25.9 km/h 49 % 0.0 in /  0 mm
20:37 28.1 °F /  -2.2 °C 16.7 °F /  -8.5 °C 1016.8 in /  34428.8 hPa WNW 8.0 mph /  12.9 km/h 19.3 mph /  31.1 km/h 50 % 0.0 in /  0 mm
20:42 27.8 °F /  -2.3 °C 16.7 °F /  -8.5 °C 1016.8 in /  34428.8 hPa WNW 11.3 mph /  18.2 km/h 19.3 mph /  31.1 km/h 51 % 0.0 in /  0 mm
20:52 27.3 °F /  -2.6 °C 16.6 °F /  -8.6 °C 1016.8 in /  34428.8 hPa WNW 1.6 mph /  2.6 km/h 16.1 mph /  25.9 km/h 52 % 0.0 in /  0 mm
20:57 27.1 °F /  -2.7 °C 16.7 °F /  -8.5 °C 1016.8 in /  34428.8 hPa WNW 4.8 mph /  7.7 km/h 14.5 mph /  23.3 km/h 53 % 0.0 in /  0 mm
21:02 26.9 °F /  -2.8 °C 16.5 °F /  -8.6 °C 1016.8 in /  34428.8 hPa WNW 6.4 mph /  10.3 km/h 11.3 mph /  18.2 km/h 53 % 0.0 in /  0 mm
21:07 26.7 °F /  -2.9 °C 16.6 °F /  -8.6 °C 1017.2 in /  34442.4 hPa NNW 4.8 mph /  7.7 km/h 11.3 mph /  18.2 km/h 54 % 0.0 in /  0 mm
21:12 26.4 °F /  -3.1 °C 16.6 °F /  -8.6 °C 1016.8 in /  34428.8 hPa West 3.2 mph /  5.1 km/h 9.7 mph /  15.6 km/h 55 % 0.0 in /  0 mm
21:17 26.2 °F /  -3.2 °C 16.7 °F /  -8.5 °C 1016.8 in /  34428.8 hPa WNW 4.8 mph /  7.7 km/h 9.7 mph /  15.6 km/h 56 % 0.0 in /  0 mm
21:22 25.9 °F /  -3.4 °C 16.4 °F /  -8.7 °C 1016.8 in /  34428.8 hPa WNW 1.6 mph /  2.6 km/h 8.0 mph /  12.9 km/h 56 % 0.0 in /  0 mm
21:32 25.7 °F /  -3.5 °C 16.5 °F /  -8.6 °C 1016.8 in /  34428.8 hPa Calm   4.8 mph /  7.7 km/h 57 % 0.0 in /  0 mm
21:37 25.5 °F /  -3.6 °C 16.6 °F /  -8.6 °C 1016.8 in /  34428.8 hPa Calm   4.8 mph /  7.7 km/h 58 % 0.0 in /  0 mm
21:42 25.1 °F /  -3.8 °C 16.8 °F /  -8.4 °C 1016.8 in /  34428.8 hPa Calm     60 % 0.0 in /  0 mm
21:47 24.7 °F /  -4.1 °C 16.7 °F /  -8.5 °C 1016.8 in /  34428.8 hPa WNW 3.2 mph /  5.1 km/h 3.2 mph /  5.1 km/h 61 % 0.0 in /  0 mm
21:52 24.6 °F /  -4.1 °C 16.6 °F /  -8.6 °C 1016.8 in /  34428.8 hPa Calm   3.2 mph /  5.1 km/h 61 % 0.0 in /  0 mm
21:57 24.4 °F /  -4.2 °C 16.6 °F /  -8.6 °C 1016.8 in /  34428.8 hPa Calm   3.2 mph /  5.1 km/h 62 % 0.0 in /  0 mm
22:02 24.2 °F /  -4.3 °C 16.7 °F /  -8.5 °C 1017.2 in /  34442.4 hPa Calm   3.2 mph /  5.1 km/h 63 % 0.0 in /  0 mm
22:12 23.8 °F /  -4.6 °C 16.8 °F /  -8.4 °C 1017.2 in /  34442.4 hPa Calm     65 % 0.0 in /  0 mm
22:17 23.4 °F /  -4.8 °C 16.7 °F /  -8.5 °C 1017.2 in /  34442.4 hPa Calm     66 % 0.0 in /  0 mm
22:22 23.2 °F /  -4.9 °C 16.7 °F /  -8.5 °C 1017.2 in /  34442.4 hPa Calm     67 % 0.0 in /  0 mm
22:27 23.0 °F /  -5 °C 16.8 °F /  -8.4 °C 1017.5 in /  34452.6 hPa Calm     68 % 0.0 in /  0 mm
22:32 22.8 °F /  -5.1 °C 16.8 °F /  -8.4 °C 1017.5 in /  34452.6 hPa Calm     69 % 0.0 in /  0 mm
22:42 22.6 °F /  -5.2 °C 16.8 °F /  -8.4 °C 1017.5 in /  34452.6 hPa West 1.6 mph /  2.6 km/h 3.2 mph /  5.1 km/h 70 % 0.0 in /  0 mm
22:52 22.3 °F /  -5.4 °C 16.8 °F /  -8.4 °C 1017.8 in /  34462.7 hPa Calm   3.2 mph /  5.1 km/h 71 % 0.0 in /  0 mm
22:57 22.3 °F /  -5.4 °C 16.8 °F /  -8.4 °C 1017.8 in /  34462.7 hPa Calm   3.2 mph /  5.1 km/h 71 % 0.0 in /  0 mm
23:02 22.3 °F /  -5.4 °C 16.8 °F /  -8.4 °C 1017.8 in /  34462.7 hPa Calm   3.2 mph /  5.1 km/h 71 % 0.0 in /  0 mm
23:07 22.3 °F /  -5.4 °C 16.8 °F /  -8.4 °C 1017.8 in /  34462.7 hPa Calm   3.2 mph /  5.1 km/h 71 % 0.0 in /  0 mm
23:12 22.3 °F /  -5.4 °C 17.0 °F /  -8.3 °C 1017.8 in /  34462.7 hPa Calm   3.2 mph /  5.1 km/h 72 % 0.0 in /  0 mm
23:17 22.2 °F /  -5.4 °C 16.9 °F /  -8.4 °C 1017.8 in /  34462.7 hPa Calm   1.6 mph /  2.6 km/h 72 % 0.0 in /  0 mm
23:22 22.2 °F /  -5.4 °C 16.9 °F /  -8.4 °C 1017.8 in /  34462.7 hPa WNW 3.2 mph /  5.1 km/h   72 % 0.0 in /  0 mm
23:27 22.7 °F /  -5.2 °C 16.9 °F /  -8.4 °C 1017.8 in /  34462.7 hPa Calm   4.8 mph /  7.7 km/h 70 % 0.0 in /  0 mm
23:32 22.9 °F /  -5.1 °C 16.9 °F /  -8.4 °C 1017.8 in /  34462.7 hPa WNW 1.6 mph /  2.6 km/h 4.8 mph /  7.7 km/h 69 % 0.0 in /  0 mm
23:37 23.1 °F /  -4.9 °C 16.9 °F /  -8.4 °C 1017.8 in /  34462.7 hPa WNW 1.6 mph /  2.6 km/h 6.4 mph /  10.3 km/h 68 % 0.0 in /  0 mm
23:42 23.2 °F /  -4.9 °C 17.0 °F /  -8.3 °C 1017.8 in /  34462.7 hPa West 1.6 mph /  2.6 km/h 8.0 mph /  12.9 km/h 68 % 0.0 in /  0 mm
23:47 23.2 °F /  -4.9 °C 17.0 °F /  -8.3 °C 1018.2 in /  34476.3 hPa WNW 4.8 mph /  7.7 km/h 8.0 mph /  12.9 km/h 68 % 0.0 in /  0 mm
23:52 23.2 °F /  -4.9 °C 17.2 °F /  -8.2 °C 1017.8 in /  34462.7 hPa NNW 3.2 mph /  5.1 km/h 8.0 mph /  12.9 km/h 69 % 0.0 in /  0 mm
23:57 23.2 °F /  -4.9 °C 17.2 °F /  -8.2 °C 1018.2 in /  34476.3 hPa NNW 1.6 mph /  2.6 km/h 11.3 mph /  18.2 km/h 69 % 0.0 in /  0 mm
Meteo18
Compliments of Weather Underground - 4 mb

Script developed by  Jim McMurry - jmcmurry@mwt.net Adapted for the template by  Wim van der Kuil - Leuven-Template.eu

You find our weather info also at:

European Weather Network

Weather Underground

Equipment we use:

Weather-station
Davis Vue

Weather-program
Meteobridge

Weather-server
Raspberry PI 2 B+

Provider
1 and 1

Davis Vue

Meteobridge

Raspberry PI 2 B+

1 and 1